Time;durP1;ratioP1;P1;durP2;ratioP2;P2;SDS_P1;SDS_P2;PMS_P1;PMS_P2;Temp;Humidity;BMP_temperature;BMP_pressure;BME280_temperature;BME280_humidity;BME280_pressure;Samples;Min_cycle;Max_cycle;Signal;HPM_P1;HPM_P2
2022/04/17 00:00:51;;;;;;;3.37;2.83;;;;;;;13.68;54.55;101721.47;1648311;86;21096;-64
2022/04/17 00:03:21;;;;;;;3.62;2.72;;;;;;;13.64;54.39;101717.66;1664950;85;21051;-64
2022/04/17 00:05:51;;;;;;;3.05;2.72;;;;;;;13.59;54.22;101727.34;1657469;86;21102;-63
2022/04/17 00:08:19;;;;;;;6.22;2.40;;;;;;;13.54;54.40;101714.81;1654019;86;21066;-63
2022/04/17 00:10:47;;;;;;;3.58;2.87;;;;;;;13.53;54.39;101720.91;1658014;86;21531;-65
2022/04/17 00:13:16;;;;;;;2.83;2.47;;;;;;;13.49;54.73;101714.89;1655941;86;21048;-64
2022/04/17 00:15:43;;;;;;;3.30;2.83;;;;;;;13.47;55.11;101709.27;1655387;86;21602;-65
2022/04/17 00:18:10;;;;;;;3.67;3.10;;;;;;;13.46;54.90;101716.67;1654988;86;21071;-65
2022/04/17 00:20:39;;;;;;;9.30;3.45;;;;;;;13.41;54.86;101725.06;1622721;87;21077;-65
2022/04/17 00:23:06;;;;;;;5.45;3.30;;;;;;;13.38;54.88;101731.20;1623413;87;21073;-64
2022/04/17 00:25:34;;;;;;;4.12;3.72;;;;;;;13.35;55.00;101726.48;1612586;88;21581;-65
2022/04/17 00:28:01;;;;;;;4.80;3.72;;;;;;;13.32;55.08;101729.13;1616702;88;21028;-64
2022/04/17 00:30:29;;;;;;;3.92;3.35;;;;;;;13.26;55.14;101733.16;1617074;88;21116;-66
2022/04/17 00:32:57;;;;;;;6.10;3.75;;;;;;;13.20;55.02;101722.38;1617030;88;21512;-65
2022/04/17 00:35:24;;;;;;;3.92;3.52;;;;;;;13.14;54.90;101713.77;1614761;88;21536;-66
2022/04/17 00:37:51;;;;;;;5.33;4.37;;;;;;;13.06;55.37;101713.45;1614524;88;21060;-64
2022/04/17 00:40:19;;;;;;;3.95;3.50;;;;;;;13.00;55.32;101709.59;1610397;88;21105;-65
2022/04/17 00:42:47;;;;;;;5.30;3.83;;;;;;;12.93;55.58;101706.69;1617288;88;21056;-65
2022/04/17 00:47:43;;;;;;;4.45;3.35;;;;;;;12.85;55.22;101716.40;1562161;91;21086;-65
2022/04/17 00:50:10;;;;;;;4.03;3.47;;;;;;;12.81;55.35;101718.64;1554571;91;21093;-64
2022/04/17 00:52:38;;;;;;;4.22;3.10;;;;;;;12.78;55.22;101717.36;1545708;91;21079;-66
2022/04/17 00:55:07;;;;;;;3.80;2.72;;;;;;;12.74;55.24;101711.77;1565030;91;21067;-65
2022/04/17 00:57:36;;;;;;;3.00;2.62;;;;;;;12.73;55.59;101717.90;1568557;91;21083;-65
2022/04/17 01:00:05;;;;;;;2.55;2.30;;;;;;;12.72;55.59;101717.90;1564397;91;21119;-66
2022/04/17 01:02:33;;;;;;;3.95;2.90;;;;;;;12.70;55.42;101708.79;1564443;91;21018;-65
2022/04/17 01:05:00;;;;;;;3.17;2.70;;;;;;;12.72;55.51;101708.76;1597665;89;21117;-66
2022/04/17 01:07:28;;;;;;;3.00;2.70;;;;;;;12.69;55.39;101708.39;1588683;89;21078;-65
2022/04/17 01:09:57;;;;;;;3.98;2.90;;;;;;;12.68;55.32;101721.44;1580671;89;21606;-65
2022/04/17 01:12:23;;;;;;;3.17;2.67;;;;;;;12.64;55.02;101711.50;1586478;89;21090;-65
2022/04/17 01:14:51;;;;;;;3.85;2.35;;;;;;;12.61;54.89;101708.91;1587990;89;21137;-64
2022/04/17 01:17:18;;;;;;;2.40;2.20;;;;;;;12.59;55.40;101715.91;1588930;89;21123;-65
2022/04/17 01:19:45;;;;;;;2.60;2.40;;;;;;;12.56;55.03;101705.97;1588193;89;21062;-65
2022/04/17 01:22:12;;;;;;;3.00;2.70;;;;;;;12.53;55.26;101711.25;1585472;90;21102;-64
2022/04/17 01:27:26;;;;;;;2.77;2.50;;;;;;;12.51;55.77;101713.85;1586416;89;21638;-65
2022/04/17 01:29:53;;;;;;;4.03;3.17;;;;;;;12.48;55.89;101716.53;1586217;89;21154;-65
2022/04/17 01:32:21;;;;;;;2.70;2.50;;;;;;;12.48;55.68;101706.09;1586275;89;21090;-65
2022/04/17 01:34:48;;;;;;;3.72;2.65;;;;;;;12.47;56.13;101704.34;1587563;89;21594;-65
2022/04/17 01:37:15;;;;;;;2.75;2.52;;;;;;;12.47;56.27;101704.81;1585403;90;21622;-65
2022/04/17 01:39:42;;;;;;;2.62;2.20;;;;;;;12.46;56.39;101713.08;1581173;89;21130;-65
2022/04/17 01:42:08;;;;;;;2.90;2.60;;;;;;;12.48;56.55;101703.48;1585311;89;21130;-65
2022/04/17 01:44:37;;;;;;;3.02;2.83;;;;;;;12.51;56.35;101702.11;1617917;86;21074;-65
2022/04/17 01:47:04;;;;;;;3.10;2.55;;;;;;;12.52;55.89;101705.16;1652801;86;21496;-65
2022/04/17 01:49:31;;;;;;;3.67;2.90;;;;;;;12.49;55.90;101704.34;1651695;86;21035;-65
2022/04/17 01:51:58;;;;;;;6.80;2.92;;;;;;;12.48;55.69;101700.86;1638810;86;21541;-66
2022/04/17 01:54:27;;;;;;;3.52;2.62;;;;;;;12.45;55.60;101696.98;1642278;87;21028;-64
2022/04/17 01:56:55;;;;;;;6.00;3.40;;;;;;;12.44;55.78;101707.02;1653632;86;21138;-66
2022/04/17 01:59:22;;;;;;;3.70;3.12;;;;;;;12.42;55.86;101700.95;1653426;86;21024;-65
2022/04/17 02:01:51;;;;;;;4.25;3.25;;;;;;;12.41;55.65;101699.21;1647738;86;21087;-65
2022/04/17 02:04:18;;;;;;;3.95;3.15;;;;;;;12.36;55.69;101690.60;1653111;85;21032;-65
2022/04/17 02:06:47;;;;;;;5.95;3.40;;;;;;;12.30;55.70;101681.56;1655839;85;21558;-65
2022/04/17 02:09:16;;;;;;;4.50;3.62;;;;;;;12.25;56.15;101689.88;1667677;85;21613;-65
2022/04/17 02:11:43;;;;;;;3.67;3.37;;;;;;;12.19;56.31;101703.01;1665087;85;21110;-65
2022/04/17 02:14:12;;;;;;;5.80;3.42;;;;;;;12.15;56.10;101711.77;1664410;85;21048;-65
2022/04/17 02:16:41;;;;;;;3.60;3.30;;;;;;;12.09;56.07;101717.06;1664397;85;21550;-65
2022/04/17 02:19:08;;;;;;;3.72;3.33;;;;;;;12.07;56.35;101715.78;1665051;85;21071;-66
2022/04/17 02:21:37;;;;;;;4.25;3.65;;;;;;;12.06;56.60;101712.73;1663815;85;21055;-65
2022/04/17 02:24:05;;;;;;;4.25;3.85;;;;;;;12.08;56.38;101703.58;1667817;85;21038;-66
2022/04/17 02:26:33;;;;;;;4.83;3.83;;;;;;;12.06;56.56;101701.44;1665746;85;21594;-66
2022/04/17 02:29:00;;;;;;;4.80;3.90;;;;;;;12.04;56.64;101705.80;1666324;85;21070;-65
2022/04/17 02:31:27;;;;;;;5.65;3.95;;;;;;;12.01;56.44;101713.69;1667003;85;21049;-65
2022/04/17 02:33:54;;;;;;;4.95;3.77;;;;;;;11.97;56.73;101712.00;1637245;86;21110;-66
2022/04/17 02:36:21;;;;;;;3.85;3.55;;;;;;;11.96;56.88;101707.65;1636428;86;21070;-65
2022/04/17 02:38:50;;;;;;;4.17;3.47;;;;;;;11.96;56.82;101714.17;1620550;88;21573;-66
2022/04/17 02:41:17;;;;;;;3.87;3.52;;;;;;;11.95;56.63;101720.28;1627036;87;21071;-65
2022/04/17 02:43:45;;;;;;;4.03;3.62;;;;;;;11.97;56.61;101726.34;1634007;87;21146;-66
2022/04/17 02:46:12;;;;;;;5.12;4.22;;;;;;;11.98;56.38;101716.31;1635681;87;21075;-65
2022/04/17 02:48:39;;;;;;;4.12;3.60;;;;;;;11.97;55.94;101696.35;1631626;87;21125;-66
2022/04/17 02:51:07;;;;;;;4.00;3.60;;;;;;;11.94;55.93;101696.38;1627359;87;21134;-65
2022/04/17 02:53:35;;;;;;;3.60;3.30;;;;;;;11.93;56.09;101694.66;1633199;87;21102;-65
2022/04/17 02:56:03;;;;;;;4.40;4.00;;;;;;;11.90;55.92;101690.34;1633085;87;21543;-67
2022/04/17 02:58:30;;;;;;;4.28;3.83;;;;;;;11.88;56.21;101688.19;1629883;87;21102;-65
2022/04/17 03:06:29;;;;;;;4.40;4.00;;;;;;;11.88;56.81;101714.70;1635376;87;21078;-64
2022/04/17 03:08:58;;;;;;;4.72;4.20;;;;;;;11.89;56.96;101724.27;1633512;87;21437;-65
2022/04/17 03:11:26;;;;;;;5.45;4.67;;;;;;;11.91;56.57;101740.77;1633735;87;21074;-65
2022/04/17 03:13:55;;;;;;;4.95;4.45;;;;;;;11.88;56.20;101732.53;1634542;87;21110;-65
2022/04/17 03:16:22;;;;;;;5.60;4.75;;;;;;;11.87;56.03;101731.25;1631108;87;21578;-65
2022/04/17 03:18:50;;;;;;;4.90;4.50;;;;;;;11.85;56.09;101726.50;1637340;87;21047;-64
2022/04/17 03:21:17;;;;;;;5.35;4.80;;;;;;;11.80;56.15;101718.72;1628747;87;21067;-65
2022/04/17 03:23:44;;;;;;;4.75;4.35;;;;;;;11.78;56.31;101722.22;1632498;87;21047;-66
2022/04/17 03:26:11;;;;;;;4.83;4.42;;;;;;;11.74;56.23;101721.83;1633241;87;21074;-65
2022/04/17 03:28:40;;;;;;;5.08;4.58;;;;;;;11.70;55.90;101718.41;1631781;86;21073;-65
2022/04/17 03:31:08;;;;;;;4.85;4.45;;;;;;;11.66;56.10;101723.62;1649200;86;21051;-65
2022/04/17 03:33:34;;;;;;;7.80;5.00;;;;;;;11.64;56.47;101726.69;1666559;85;21062;-65
2022/04/17 03:36:01;;;;;;;4.78;4.37;;;;;;;11.61;56.45;101739.73;1665761;85;21070;-65
2022/04/17 03:38:28;;;;;;;5.30;4.65;;;;;;;11.59;56.30;101738.89;1666901;85;21046;-65
2022/04/17 03:40:56;;;;;;;5.33;4.08;;;;;;;11.58;56.35;101765.86;1667951;85;21054;-66
2022/04/17 03:43:23;;;;;;;5.33;4.85;;;;;;;11.59;56.43;101763.66;1667295;85;21614;-65
2022/04/17 03:45:51;;;;;;;5.50;4.50;;;;;;;11.57;56.37;101775.41;1665013;85;21081;-66
2022/04/17 03:48:18;;;;;;;6.53;4.58;;;;;;;11.59;56.56;101781.91;1658007;85;21062;-66
2022/04/17 03:50:45;;;;;;;7.03;4.67;;;;;;;11.61;56.92;101778.84;1667702;85;21038;-67
2022/04/17 03:53:13;;;;;;;8.33;4.70;;;;;;;11.60;57.05;101779.73;1667881;85;21046;-68
2022/04/17 03:55:41;;;;;;;6.67;4.45;;;;;;;11.57;57.56;101774.11;1665256;85;21122;-68
2022/04/17 03:58:09;;;;;;;8.80;4.47;;;;;;;11.55;57.60;101775.00;1666324;85;21086;-70
2022/04/17 04:00:36;;;;;;;5.67;4.25;;;;;;;11.53;57.83;101786.75;1666685;85;21059;-70
2022/04/17 04:03:03;;;;;;;6.60;3.85;;;;;;;11.50;57.66;101789.83;1667577;85;21058;-69
2022/04/17 04:05:31;;;;;;;7.10;4.08;;;;;;;11.46;57.89;101795.05;1660339;84;21063;-69
2022/04/17 04:07:58;;;;;;;4.33;3.92;;;;;;;11.40;58.16;101784.69;1655887;86;21047;-73
2022/04/17 04:10:25;;;;;;;4.35;3.65;;;;;;;11.37;58.28;101789.91;1654996;86;21543;-71
2022/04/17 04:12:52;;;;;;;4.65;3.77;;;;;;;11.31;58.51;101783.45;1654496;85;21571;-71
2022/04/17 04:15:19;;;;;;;4.15;3.47;;;;;;;11.26;57.91;101791.77;1655283;86;21107;-73
2022/04/17 04:17:47;;;;;;;5.35;3.80;;;;;;;11.15;57.93;101771.43;1654707;86;21527;-72
2022/04/17 04:20:15;;;;;;;6.08;3.65;;;;;;;11.05;58.06;101763.27;1654291;86;21087;-73
2022/04/17 04:22:41;;;;;;;5.72;3.30;;;;;;;10.98;58.49;101759.43;1656887;86;21528;-73
2022/04/17 04:25:10;;;;;;;3.87;3.42;;;;;;;10.91;58.54;101759.91;1653772;86;21099;-71
2022/04/17 04:30:23;;;;;;;3.65;3.30;;;;;;;10.85;58.37;101772.97;1657812;86;21551;-71
2022/04/17 04:32:53;;;;;;;3.60;3.30;;;;;;;10.81;58.33;101769.09;1657690;86;21555;-70
2022/04/17 04:35:21;;;;;;;3.60;3.30;;;;;;;10.74;58.27;101778.67;1656294;86;21064;-70
2022/04/17 04:37:50;;;;;;;4.95;3.00;;;;;;;10.70;58.69;101786.08;1649573;86;21066;-69
2022/04/17 04:40:18;;;;;;;4.20;3.40;;;;;;;10.69;58.76;101781.75;1654495;86;20992;-69
2022/04/17 04:42:44;;;;;;;4.17;3.15;;;;;;;10.64;58.51;101793.92;1632439;86;21023;-70
2022/04/17 04:47:57;;;;;;;5.22;3.37;;;;;;;10.59;58.39;101798.30;1656953;86;21070;-69
2022/04/17 04:50:24;;;;;;;3.77;3.47;;;;;;;10.57;58.62;101783.13;1655333;86;21538;-68
2022/04/17 04:52:53;;;;;;;5.10;3.77;;;;;;;10.55;58.89;101778.38;1653772;86;21051;-69
2022/04/17 04:55:19;;;;;;;5.35;3.75;;;;;;;10.55;59.29;101775.77;1657321;86;21531;-70
2022/04/17 04:57:46;;;;;;;3.98;3.30;;;;;;;10.54;59.19;101772.30;1657847;86;21051;-69
2022/04/17 05:00:34;;;;;;;5.37;3.98;;;;;;;10.51;59.05;101757.11;1626387;87;21099;-69
2022/04/17 05:03:03;;;;;;;4.15;3.75;;;;;;;10.45;59.44;101742.84;1629110;87;21070;-69
2022/04/17 05:05:30;;;;;;;5.05;3.55;;;;;;;10.41;59.60;101758.91;1626512;87;21068;-69
2022/04/17 05:07:57;;;;;;;4.75;3.58;;;;;;;10.38;59.65;101759.37;1614337;88;21074;-68
2022/04/17 05:10:25;;;;;;;4.80;3.72;;;;;;;10.36;59.70;101761.11;1614585;88;21637;-68
2022/04/17 05:12:52;;;;;;;3.98;3.58;;;;;;;10.34;60.14;101748.13;1610390;88;21115;-68
2022/04/17 05:15:22;;;;;;;4.10;3.70;;;;;;;10.33;59.94;101758.52;1599207;89;21072;-68
2022/04/17 05:17:49;;;;;;;4.20;3.80;;;;;;;10.34;59.86;101760.26;1629504;87;21100;-69
2022/04/17 05:20:17;;;;;;;4.95;3.70;;;;;;;10.34;59.77;101768.06;1623712;87;21600;-69
2022/04/17 05:22:45;;;;;;;4.50;3.98;;;;;;;10.33;59.21;101787.13;1629310;87;21041;-69
2022/04/17 05:25:13;;;;;;;6.17;4.00;;;;;;;10.32;59.39;101799.30;1628152;88;21029;-69
2022/04/17 05:27:40;;;;;;;4.45;4.05;;;;;;;10.32;59.14;101801.90;1626600;87;21061;-68
2022/04/17 05:30:09;;;;;;;4.22;3.83;;;;;;;10.29;58.69;101803.63;1629368;87;21080;-69
2022/04/17 05:32:35;;;;;;;4.83;4.42;;;;;;;10.28;59.10;101807.11;1610470;89;21647;-69
2022/04/17 05:35:05;;;;;;;6.50;4.15;;;;;;;10.29;58.94;101807.52;1629354;87;21038;-69
2022/04/17 05:37:33;;;;;;;3.58;3.27;;;;;;;10.29;59.19;101814.03;1629434;87;21066;-70
2022/04/17 05:39:59;;;;;;;3.87;3.58;;;;;;;10.29;59.58;101804.92;1629350;87;21062;-69
2022/04/17 05:42:28;;;;;;;3.95;3.55;;;;;;;10.33;59.46;101805.34;1629440;87;21057;-70
2022/04/17 05:44:55;;;;;;;5.40;3.72;;;;;;;10.34;59.45;101818.37;1596913;88;21071;-69
2022/04/17 05:47:21;;;;;;;4.08;3.75;;;;;;;10.37;59.45;101818.77;1626607;87;21097;-67
2022/04/17 05:49:48;;;;;;;4.17;3.67;;;;;;;10.39;59.35;101823.53;1614396;88;21099;-68
2022/04/17 05:52:16;;;;;;;4.97;3.52;;;;;;;10.39;59.37;101820.92;1614489;88;21093;-67
2022/04/17 05:54:43;;;;;;;4.50;3.45;;;;;;;10.39;59.59;101810.52;1600467;88;21588;-68
2022/04/17 05:57:11;;;;;;;3.77;3.42;;;;;;;10.38;59.64;101816.61;1626610;87;21024;-67
2022/04/17 05:59:38;;;;;;;3.67;3.27;;;;;;;10.34;58.77;101827.90;1628200;87;21147;-70
2022/04/17 06:02:06;;;;;;;4.03;3.20;;;;;;;10.27;58.75;101828.35;1638633;87;21050;-68
2022/04/17 06:04:34;;;;;;;3.60;3.30;;;;;;;10.21;59.08;101831.41;1697761;84;21083;-68
2022/04/17 06:07:02;;;;;;;3.25;2.95;;;;;;;10.17;59.46;101825.78;1676583;84;21088;-67
2022/04/17 06:09:31;;;;;;;4.28;3.22;;;;;;;10.14;59.58;101825.34;1698389;84;21293;-67
2022/04/17 06:11:58;;;;;;;3.35;3.05;;;;;;;10.10;59.78;101843.13;1697693;84;21040;-69
2022/04/17 06:14:24;;;;;;;3.67;3.00;;;;;;;10.11;59.97;101841.41;1697716;84;21550;-69
2022/04/17 06:16:52;;;;;;;3.50;3.15;;;;;;;10.11;60.06;101850.51;1684805;84;21073;-67
2022/04/17 06:19:20;;;;;;;4.10;2.98;;;;;;;10.11;59.53;101832.30;1694726;84;21072;-67
2022/04/17 06:21:48;;;;;;;2.85;2.65;;;;;;;10.08;59.70;101836.16;1697691;84;21064;-67
2022/04/17 06:24:15;;;;;;;3.22;3.02;;;;;;;10.06;59.87;101841.80;1697397;84;21033;-68
2022/04/17 06:26:42;;;;;;;3.08;2.77;;;;;;;10.06;60.15;101840.50;1697716;84;21076;-68
2022/04/17 06:29:10;;;;;;;3.20;2.90;;;;;;;10.07;60.27;101847.03;1697521;84;21041;-68
2022/04/17 06:31:45;;;;;;;2.90;2.70;;;;;;;10.07;60.37;101857.42;1697756;84;20998;-70
2022/04/17 06:34:07;;;;;;;5.20;3.52;;;;;;;10.09;60.35;101848.31;1693753;84;21030;-69
2022/04/17 06:36:34;;;;;;;3.17;2.87;;;;;;;10.10;60.54;101839.66;1663940;86;21036;-67
2022/04/17 06:39:03;;;;;;;3.12;2.72;;;;;;;10.11;60.62;101853.11;1664082;86;21031;-67
2022/04/17 06:41:31;;;;;;;4.12;3.02;;;;;;;10.13;60.39;101851.37;1696597;84;21014;-68
2022/04/17 06:43:59;;;;;;;2.90;2.60;;;;;;;10.11;60.16;101855.28;1698243;84;21534;-68
2022/04/17 06:46:26;;;;;;;3.12;2.92;;;;;;;10.11;60.20;101846.61;1664010;86;21076;-68
2022/04/17 06:48:55;;;;;;;4.17;2.90;;;;;;;10.09;59.92;101849.61;1697840;84;21029;-69
2022/04/17 06:51:24;;;;;;;3.87;3.00;;;;;;;10.06;59.76;101847.00;1697559;84;21517;-68
2022/04/17 06:53:52;;;;;;;3.02;2.72;;;;;;;10.02;59.94;101853.08;1695049;84;21592;-70
2022/04/17 06:56:19;;;;;;;4.55;3.15;;;;;;;10.01;60.34;101855.27;1698216;84;21053;-68
2022/04/17 06:58:46;;;;;;;3.52;3.20;;;;;;;10.02;60.47;101855.68;1697368;83;21029;-69
2022/04/17 07:01:15;;;;;;;3.42;3.02;;;;;;;10.02;60.36;101859.58;1695349;84;21086;-69
2022/04/17 07:03:42;;;;;;;3.47;2.90;;;;;;;10.02;60.54;101867.38;1694241;84;21078;-68
2022/04/17 07:06:10;;;;;;;3.87;3.02;;;;;;;10.04;60.46;101865.22;1694545;84;21034;-70
2022/04/17 07:08:37;;;;;;;3.80;2.70;;;;;;;10.02;60.48;101867.38;1694487;84;21050;-69
2022/04/17 07:11:05;;;;;;;4.40;3.00;;;;;;;10.01;60.32;101879.97;1693958;84;21526;-70
2022/04/17 07:13:33;;;;;;;3.62;3.05;;;;;;;9.98;60.54;101888.63;1694619;84;21054;-70
2022/04/17 07:16:01;;;;;;;3.70;3.00;;;;;;;9.99;60.72;101898.18;1680669;84;21575;-69
2022/04/17 07:18:30;;;;;;;4.10;3.40;;;;;;;10.00;60.60;101897.72;1695648;84;21058;-71
2022/04/17 07:20:58;;;;;;;3.52;2.95;;;;;;;10.01;60.57;101898.17;1696038;84;21047;-72
2022/04/17 07:23:26;;;;;;;4.40;3.20;;;;;;;10.01;60.52;101892.97;1688521;84;21047;-70
2022/04/17 07:25:56;;;;;;;3.30;3.00;;;;;;;10.02;60.29;101901.19;1695074;84;21034;-71
2022/04/17 07:28:24;;;;;;;3.42;3.12;;;;;;;9.99;60.23;101899.91;1694243;84;21098;-70
2022/04/17 07:30:51;;;;;;;3.62;2.80;;;;;;;9.98;60.11;101890.36;1695633;84;21098;-70
2022/04/17 07:33:18;;;;;;;3.30;3.00;;;;;;;9.96;60.29;101892.09;1696023;84;21066;-70
2022/04/17 07:35:47;;;;;;;3.05;2.80;;;;;;;9.95;60.38;101891.68;1694596;84;21079;-70
2022/04/17 07:38:15;;;;;;;3.00;2.70;;;;;;;9.96;60.49;101897.30;1688214;84;21030;-70
2022/04/17 07:40:42;;;;;;;4.28;3.35;;;;;;;9.98;60.57;101900.76;1695783;84;21058;-70
2022/04/17 07:43:09;;;;;;;4.45;3.33;;;;;;;10.00;60.59;101910.30;1695702;84;21043;-70
2022/04/17 07:45:37;;;;;;;3.92;3.20;;;;;;;10.02;60.24;101910.29;1694426;84;21567;-70
2022/04/17 07:48:05;;;;;;;3.17;2.70;;;;;;;10.03;60.34;101904.23;1694480;84;21050;-70
2022/04/17 07:50:32;;;;;;;2.85;2.47;;;;;;;10.03;60.19;101901.64;1694411;84;21007;-69
2022/04/17 07:52:59;;;;;;;4.40;2.83;;;;;;;10.04;60.29;101902.05;1694238;84;21038;-70
2022/04/17 07:55:26;;;;;;;3.30;2.90;;;;;;;10.04;60.13;101905.95;1694306;84;21042;-69
2022/04/17 07:57:59;;;;;;;2.85;2.65;;;;;;;10.05;60.14;101905.97;1695164;84;21034;-70
2022/04/17 08:00:27;;;;;;;3.95;2.87;;;;;;;10.05;59.81;101903.80;1696168;84;21080;-70
2022/04/17 08:03:08;;;;;;;2.62;2.42;;;;;;;10.06;59.85;101905.52;1664135;86;21011;-70
2022/04/17 08:05:38;;;;;;;3.00;2.80;;;;;;;10.06;59.86;101902.91;1663838;86;21091;-69
2022/04/17 08:08:08;;;;;;;3.33;2.50;;;;;;;10.08;59.93;101899.88;1663490;86;21084;-69
2022/04/17 08:10:37;;;;;;;2.90;2.70;;;;;;;10.09;59.62;101901.63;1697807;84;22226;-69
2022/04/17 08:13:06;;;;;;;3.55;2.52;;;;;;;10.08;59.70;101898.15;1697091;84;21025;-69
2022/04/17 08:15:34;;;;;;;2.72;2.50;;;;;;;10.08;59.83;101892.95;1696934;84;21022;-70
2022/04/17 08:18:02;;;;;;;3.10;2.60;;;;;;;10.10;60.15;101882.56;1697883;84;21030;-69
2022/04/17 08:20:30;;;;;;;2.70;2.50;;;;;;;10.12;60.20;101883.46;1696923;84;21565;-69
2022/04/17 08:22:57;;;;;;;2.75;2.52;;;;;;;10.12;60.06;101882.16;1697677;84;21073;-69
2022/04/17 08:25:23;;;;;;;3.17;2.60;;;;;;;10.13;60.03;101887.78;1697641;84;21018;-69
2022/04/17 08:27:52;;;;;;;2.85;2.50;;;;;;;10.15;59.67;101882.14;1698086;84;21017;-69
2022/04/17 08:30:23;;;;;;;3.00;2.70;;;;;;;10.16;60.13;101879.98;1697940;84;21478;-69
2022/04/17 08:32:50;;;;;;;5.28;3.20;;;;;;;10.18;60.41;101880.39;1698019;84;21482;-69
2022/04/17 08:35:18;;;;;;;3.45;2.85;;;;;;;10.24;60.54;101883.43;1697974;84;21072;-69
2022/04/17 08:37:45;;;;;;;3.05;2.77;;;;;;;10.26;59.86;101881.69;1697584;84;21065;-68
2022/04/17 08:40:12;;;;;;;3.00;2.70;;;;;;;10.27;59.57;101879.50;1697591;84;21497;-68
2022/04/17 08:42:39;;;;;;;3.50;3.17;;;;;;;10.26;59.33;101883.83;1697575;84;21053;-68
2022/04/17 08:47:40;;;;;;;2.72;2.50;;;;;;;10.31;59.93;101879.92;1540087;93;21094;-68
2022/04/17 08:50:13;;;;;;;2.87;2.58;;;;;;;10.34;59.74;101882.53;1530111;93;21137;-68
2022/04/17 08:52:43;;;;;;;2.85;2.60;;;;;;;10.37;59.77;101878.61;1539866;93;21061;-66
2022/04/17 08:55:11;;;;;;;4.47;3.47;;;;;;;10.40;59.75;101877.31;1540225;93;21096;-67
2022/04/17 08:57:38;;;;;;;7.47;4.70;;;;;;;10.44;59.95;101880.33;1540327;93;21592;-67
2022/04/17 09:00:10;;;;;;;3.65;3.20;;;;;;;10.45;59.44;101870.34;1537173;93;21145;-67
2022/04/17 09:02:37;;;;;;;3.75;2.80;;;;;;;10.45;59.23;101870.34;1533790;93;21554;-68
2022/04/17 09:05:10;;;;;;;3.17;2.87;;;;;;;10.46;59.18;101866.88;1533926;93;21129;-68
2022/04/17 09:07:47;;;;;;;2.42;2.22;;;;;;;10.46;59.04;101860.37;1493797;94;21106;-68
2022/04/17 09:10:29;;;;;;;3.15;2.85;;;;;;;10.49;58.87;101869.45;1461173;98;21086;-68
2022/04/17 09:13:03;;;;;;;3.60;2.40;;;;;;;10.50;58.93;101865.99;1456324;98;21185;-68
2022/04/17 09:15:31;;;;;;;;;;;;;;;10.50;58.77;101860.79;1459221;98;21081;-68
2022/04/17 09:17:58;;;;;;;7.30;4.87;;;;;;;10.50;58.95;101864.69;1456283;98;20121;-67
2022/04/17 09:20:27;;;;;;;20.37;9.25;;;;;;;10.50;58.33;101864.27;1456128;98;21606;-67
2022/04/17 09:22:58;;;;;;;6.37;4.33;;;;;;;10.50;58.19;101858.19;1458583;98;21158;-68
2022/04/17 09:25:28;;;;;;;2.67;2.30;;;;;;;10.49;58.14;101859.05;1458770;98;21066;-67
2022/04/17 09:28:06;;;;;;;5.80;3.85;;;;;;;10.49;57.85;101862.95;1456045;98;21126;-68
2022/04/17 09:30:42;;;;;;;2.92;2.62;;;;;;;10.47;58.14;101854.28;1458266;98;21062;-68
2022/04/17 09:33:14;;;;;;;2.83;2.62;;;;;;;10.49;58.19;101862.95;1454451;98;21090;-68
2022/04/17 09:35:53;;;;;;;2.72;2.17;;;;;;;10.49;58.11;101852.53;1456888;98;21131;-68
2022/04/17 09:38:28;;;;;;;3.83;2.50;;;;;;;10.49;57.74;101852.53;1449415;98;21178;-68
2022/04/17 09:41:11;;;;;;;3.80;3.08;;;;;;;10.48;58.20;101847.80;1450081;97;21667;-67
2022/04/17 09:43:39;;;;;;;2.58;2.37;;;;;;;10.51;57.99;101844.29;1447792;98;21150;-66
2022/04/17 09:46:07;;;;;;;2.87;2.17;;;;;;;10.50;57.59;101847.78;1431832;99;21138;-66
2022/04/17 09:48:39;;;;;;;2.37;2.17;;;;;;;10.52;58.24;101859.05;1438907;99;21121;-67
2022/04/17 09:51:26;;;;;;;1.90;1.80;;;;;;;10.54;58.01;101855.58;1465027;95;21087;-67
2022/04/17 09:54:01;;;;;;;2.52;2.00;;;;;;;10.57;57.47;101850.80;1493815;95;21102;-66
2022/04/17 09:56:37;;;;;;;2.42;2.20;;;;;;;10.58;57.27;101849.48;1494085;95;21658;-67
2022/04/17 09:59:21;;;;;;;2.45;1.90;;;;;;;10.60;56.76;101854.24;1493657;95;21115;-67
2022/04/17 10:01:56;;;;;;;1.82;1.70;;;;;;;10.62;56.93;101854.23;1493962;95;21045;-69
2022/04/17 10:04:25;;;;;;;1.70;1.60;;;;;;;10.62;56.58;101845.12;1511286;93;21157;-67
2022/04/17 10:06:54;;;;;;;1.75;1.62;;;;;;;10.61;55.94;101851.21;1534370;91;21074;-67
2022/04/17 10:09:22;;;;;;;1.57;1.45;;;;;;;10.59;55.56;101852.95;1546800;92;21046;-68
2022/04/17 10:11:51;;;;;;;1.72;1.45;;;;;;;10.54;55.50;101850.37;1547596;92;21592;-68
2022/04/17 10:14:19;;;;;;;2.05;1.67;;;;;;;10.53;55.99;101850.38;1548004;92;21042;-68
2022/04/17 10:16:47;;;;;;;1.80;1.70;;;;;;;10.50;56.08;101845.17;1609432;89;21045;-68
2022/04/17 10:19:21;;;;;;;1.75;1.50;;;;;;;10.51;56.85;101841.69;1612550;89;21082;-67
2022/04/17 10:21:49;;;;;;;1.92;1.75;;;;;;;10.53;56.02;101843.42;1604190;89;21057;-67
2022/04/17 10:24:19;;;;;;;1.80;1.70;;;;;;;10.56;56.52;101839.94;1612733;89;21104;-68
2022/04/17 10:26:51;;;;;;;1.50;1.25;;;;;;;10.55;56.67;101835.62;1612691;89;21118;-65
2022/04/17 10:29:38;;;;;;;1.85;1.52;;;;;;;10.57;56.72;101837.32;1612681;89;21021;-66
2022/04/17 10:32:36;;;;;;;2.70;2.50;;;;;;;10.56;57.03;101843.42;1612426;89;21026;-66
2022/04/17 10:35:26;;;;;;;2.95;2.35;;;;;;;10.60;57.06;101849.47;1612697;89;21558;-66
2022/04/17 10:38:18;;;;;;;35.10;15.95;;;;;;;10.57;56.53;101853.40;1612610;89;21114;-66
2022/04/17 10:41:05;;;;;;;35.88;20.97;;;;;;;10.59;56.97;101862.06;1612975;89;21098;-66
2022/04/17 10:43:50;;;;;;;8.88;7.37;;;;;;;10.60;56.95;101855.97;1594042;89;21085;-66
2022/04/17 10:46:19;;;;;;;7.78;7.03;;;;;;;10.59;56.88;101846.45;1628784;87;21068;-67
2022/04/17 10:48:52;;;;;;;26.70;18.32;;;;;;;10.60;57.12;101844.27;1622677;87;21045;-66
2022/04/17 10:51:30;;;;;;;13.20;11.80;;;;;;;10.61;57.36;101844.24;1623051;87;21549;-67
2022/04/17 10:54:07;;;;;;;20.00;12.73;;;;;;;10.63;57.34;101845.10;1606969;88;21065;-67
2022/04/17 10:56:40;;;;;;;13.13;11.35;;;;;;;10.67;57.24;101841.20;1606371;88;21092;-67
2022/04/17 10:59:20;;;;;;;9.23;7.95;;;;;;;10.67;56.94;101843.37;1551107;92;21084;-67
2022/04/17 11:01:51;;;;;;;7.90;7.20;;;;;;;10.65;57.26;101839.91;1497727;94;21045;-68
2022/04/17 11:04:27;;;;;;;11.00;9.55;;;;;;;10.66;57.02;101844.23;1495791;96;21069;-67
2022/04/17 11:07:10;;;;;;;14.85;13.40;;;;;;;10.66;57.15;101859.84;1497756;96;21117;-67
2022/04/17 11:09:41;;;;;;;18.52;13.25;;;;;;;10.66;57.46;101849.44;1497473;94;21685;-68
2022/04/17 11:12:20;;;;;;;21.00;18.73;;;;;;;10.68;57.39;101838.58;1497859;94;21168;-67
2022/04/17 11:15:06;;;;;;;13.83;10.98;;;;;;;10.67;57.29;101845.98;1496674;96;21085;-67
2022/04/17 11:17:34;;;;;;;6.15;5.50;;;;;;;10.68;57.41;101858.10;1497535;95;21086;-67
2022/04/17 11:20:02;;;;;;;7.25;6.58;;;;;;;10.69;57.39;101855.94;1497445;96;21140;-67
2022/04/17 11:22:34;;;;;;;5.55;5.05;;;;;;;10.71;57.62;101854.20;1500374;93;21121;-68
2022/04/17 11:25:11;;;;;;;;;;;;;;;10.73;57.53;101856.36;1535626;94;21077;-67
2022/04/17 11:27:49;;;;;;;3.02;2.83;;;;;;;10.75;57.08;101854.61;1533277;94;20146;-66
2022/04/17 11:30:24;;;;;;;2.50;2.30;;;;;;;10.74;57.07;101855.92;1527505;94;21092;-67
2022/04/17 11:32:52;;;;;;;2.65;2.33;;;;;;;10.72;57.13;101849.41;1533248;94;21096;-66
2022/04/17 11:35:25;;;;;;;2.90;2.47;;;;;;;10.72;56.94;101844.20;1533191;94;21088;-66
2022/04/17 11:38:02;;;;;;;3.87;2.10;;;;;;;10.72;56.44;101842.02;1534019;91;21059;-66
2022/04/17 11:40:33;;;;;;;2.20;2.10;;;;;;;10.72;56.23;101840.72;1526247;94;21104;-66
2022/04/17 11:43:12;;;;;;;2.60;2.40;;;;;;;10.70;56.79;101838.13;1526749;93;21144;-67
2022/04/17 11:45:41;;;;;;;2.80;2.52;;;;;;;10.71;57.40;101837.28;1521068;94;21053;-67
2022/04/17 11:48:10;;;;;;;3.50;2.85;;;;;;;10.71;57.67;101839.88;1521040;94;21121;-67
2022/04/17 11:50:37;;;;;;;3.30;2.62;;;;;;;10.75;57.78;101831.18;1521284;94;21175;-67
2022/04/17 11:53:13;;;;;;;3.95;2.85;;;;;;;10.75;57.79;101833.78;1521138;94;21169;-68